createdAt,value
2016-05-20T00:00:28.707Z,1008.13
2016-05-20T00:01:28.694Z,1008.09
2016-05-20T00:02:28.665Z,1008.06
2016-05-20T00:03:28.637Z,1008.06
2016-05-20T00:04:28.608Z,1008.05
2016-05-20T00:05:28.595Z,1007.98
2016-05-20T00:06:28.567Z,1008.01
2016-05-20T00:07:28.539Z,1008
2016-05-20T00:08:28.509Z,1007.99
2016-05-20T00:09:28.497Z,1007.97
2016-05-20T00:10:28.468Z,1007.98
2016-05-20T00:11:28.439Z,1007.97
2016-05-20T00:12:28.411Z,1007.96
2016-05-20T00:13:28.413Z,1007.98
2016-05-20T00:14:28.370Z,1007.98
2016-05-20T00:15:28.356Z,1007.97
2016-05-20T00:16:28.328Z,1007.99
2016-05-20T00:17:28.300Z,1007.99
2016-05-20T00:18:28.271Z,1007.97
2016-05-20T00:19:28.258Z,1007.98
2016-05-20T00:20:28.230Z,1007.92
2016-05-20T00:21:28.216Z,1007.96
2016-05-20T00:22:28.188Z,1007.92
2016-05-20T00:23:28.160Z,1007.92
2016-05-20T00:24:28.224Z,1007.93
2016-05-20T00:25:28.118Z,1007.99
2016-05-20T00:26:28.089Z,1007.98
2016-05-20T00:27:28.060Z,1008.02
2016-05-20T00:28:28.048Z,1007.99
2016-05-20T00:29:28.019Z,1007.96
2016-05-20T00:30:27.991Z,1007.92
2016-05-20T00:31:27.962Z,1007.93
2016-05-20T00:32:27.949Z,1007.95
2016-05-20T00:33:27.921Z,1007.94
2016-05-20T00:34:27.893Z,1007.91
2016-05-20T00:35:27.864Z,1007.93
2016-05-20T00:36:27.851Z,1007.93
2016-05-20T00:37:27.822Z,1007.87
2016-05-20T00:38:27.793Z,1007.85
2016-05-20T00:39:27.781Z,1007.84
2016-05-20T00:40:27.752Z,1007.84
2016-05-20T00:41:27.723Z,1007.82
2016-05-20T00:42:27.694Z,1007.81
2016-05-20T00:43:27.681Z,1007.76
2016-05-20T00:44:27.670Z,1007.75
2016-05-20T00:45:27.641Z,1007.75
2016-05-20T00:46:27.611Z,1007.73
2016-05-20T00:47:27.583Z,1007.69
2016-05-20T00:48:27.555Z,1007.68
2016-05-20T00:49:27.542Z,1007.69
2016-05-20T00:50:27.513Z,1007.69
2016-05-20T00:51:27.485Z,1007.73
2016-05-20T00:52:27.456Z,1007.71
2016-05-20T00:53:27.427Z,1007.72
2016-05-20T00:54:27.415Z,1007.71
2016-05-20T00:55:27.386Z,1007.69
2016-05-20T00:56:27.357Z,1007.73
2016-05-20T00:57:27.344Z,1007.71
2016-05-20T00:58:27.316Z,1007.68
2016-05-20T00:59:27.288Z,1007.74
2016-05-20T01:00:27.274Z,1007.73
2016-05-20T01:01:27.246Z,1007.78
2016-05-20T01:02:27.218Z,1007.73
2016-05-20T01:03:27.190Z,1007.71
2016-05-20T01:04:27.176Z,1007.7
2016-05-20T01:05:27.148Z,1007.72
2016-05-20T01:06:27.118Z,1007.7
2016-05-20T01:07:27.106Z,1007.74
2016-05-20T01:08:27.078Z,1007.75
2016-05-20T01:09:27.048Z,1007.75
2016-05-20T01:10:27.036Z,1007.73
2016-05-20T01:11:27.069Z,1007.73
2016-05-20T01:12:26.978Z,1007.76
2016-05-20T01:13:26.951Z,1007.73
2016-05-20T01:14:26.936Z,1007.76
2016-05-20T01:15:26.908Z,1007.78
2016-05-20T01:16:26.880Z,1007.77
2016-05-20T01:17:26.852Z,1007.75
2016-05-20T01:18:26.839Z,1007.76
2016-05-20T01:19:26.810Z,1007.77
2016-05-20T01:20:26.781Z,1007.77
2016-05-20T01:21:26.768Z,1007.79
2016-05-20T01:22:26.740Z,1007.76
2016-05-20T01:23:26.711Z,1007.78
2016-05-20T01:24:26.682Z,1007.78
2016-05-20T01:25:26.669Z,1007.75
2016-05-20T01:26:26.641Z,1007.72
2016-05-20T01:27:26.629Z,1007.75
2016-05-20T01:28:26.600Z,1007.76
2016-05-20T01:29:26.571Z,1007.75
2016-05-20T01:30:26.543Z,1007.73
2016-05-20T01:31:26.530Z,1007.74
2016-05-20T01:32:26.501Z,1007.75
2016-05-20T01:33:26.473Z,1007.76
2016-05-20T01:34:26.444Z,1007.76
2016-05-20T01:35:26.431Z,1007.78
2016-05-20T01:36:26.403Z,1007.81
2016-05-20T01:37:26.374Z,1007.84
2016-05-20T01:38:26.361Z,1007.79
2016-05-20T01:39:26.676Z,1007.84
2016-05-20T01:40:26.303Z,1007.81
2016-05-20T01:41:26.292Z,1007.83
2016-05-20T01:42:26.263Z,1007.86
2016-05-20T01:43:26.233Z,1007.89
2016-05-20T01:44:26.206Z,1007.91
2016-05-20T01:45:26.192Z,1007.91
2016-05-20T01:46:26.164Z,1007.97
2016-05-20T01:47:26.136Z,1007.97
2016-05-20T01:48:26.122Z,1008.01
2016-05-20T01:49:26.094Z,1008.03
2016-05-20T01:50:26.065Z,1008.04
2016-05-20T01:51:26.052Z,1008.04
2016-05-20T01:52:26.024Z,1008.01
2016-05-20T01:53:25.994Z,1008.06
2016-05-20T01:54:26.029Z,1008.04
2016-05-20T01:55:25.954Z,1008.07
2016-05-20T01:56:25.925Z,1008.06
2016-05-20T01:57:25.896Z,1008.07
2016-05-20T01:58:25.883Z,1008.01
2016-05-20T01:59:25.871Z,1008.04
2016-05-20T02:00:25.827Z,1008.03
2016-05-20T02:01:25.813Z,1008.04
2016-05-20T02:02:25.785Z,1008.02
2016-05-20T02:03:25.771Z,1007.99
2016-05-20T02:04:25.728Z,1008.03
2016-05-20T02:05:25.715Z,1007.98
2016-05-20T02:06:25.686Z,1007.98
2016-05-20T02:07:25.673Z,1008.01
2016-05-20T02:08:25.645Z,1007.94
2016-05-20T02:09:25.617Z,1007.93
2016-05-20T02:10:25.588Z,1007.89
2016-05-20T02:11:25.576Z,1007.89
2016-05-20T02:12:25.546Z,1007.86
2016-05-20T02:13:25.518Z,1007.9
2016-05-20T02:14:25.505Z,1007.87
2016-05-20T02:15:25.475Z,1007.87
2016-05-20T02:16:25.448Z,1007.9
2016-05-20T02:17:25.434Z,1007.91
2016-05-20T02:18:25.406Z,1007.91
2016-05-20T02:19:25.378Z,1007.93
2016-05-20T02:20:25.364Z,1007.94
2016-05-20T02:21:25.336Z,1007.99
2016-05-20T02:22:25.307Z,1007.96
2016-05-20T02:23:25.280Z,1007.98
2016-05-20T02:24:25.266Z,1007.96
2016-05-20T02:25:25.238Z,1007.98
2016-05-20T02:26:25.209Z,1007.99
2016-05-20T02:27:25.196Z,1007.99
2016-05-20T02:28:25.168Z,1008.01
2016-05-20T02:29:25.138Z,1008.03
2016-05-20T02:30:25.110Z,1007.99
2016-05-20T02:31:25.097Z,1008.02
2016-05-20T02:32:25.068Z,1008.02
2016-05-20T02:33:25.040Z,1008.03
2016-05-20T02:34:25.026Z,1008.02
2016-05-20T02:35:25.014Z,1008.02
2016-05-20T02:36:24.970Z,1008.06
2016-05-20T02:37:24.988Z,1008.05
2016-05-20T02:38:24.976Z,1008.03
2016-05-20T02:39:24.948Z,1008.01
2016-05-20T02:40:24.887Z,1008
2016-05-20T02:41:24.859Z,1008
2016-05-20T02:42:24.831Z,1008.01
2016-05-20T02:43:24.817Z,1008
2016-05-20T02:44:24.789Z,1008.04
2016-05-20T02:45:24.806Z,1008.1
2016-05-20T02:46:24.731Z,1008.08
2016-05-20T02:47:24.719Z,1008.06
2016-05-20T02:48:24.690Z,1008.12
2016-05-20T02:49:24.661Z,1008.13
2016-05-20T02:50:24.633Z,1008.07
2016-05-20T02:51:24.620Z,1008.13
2016-05-20T02:52:24.592Z,1008.1
2016-05-20T02:53:24.563Z,1008.14
2016-05-20T02:54:24.534Z,1008.18
2016-05-20T02:55:24.522Z,1008.18
2016-05-20T02:56:24.493Z,1008.15
2016-05-20T02:57:24.464Z,1008.14
2016-05-20T02:58:24.451Z,1008.13
2016-05-20T02:59:24.422Z,1008.1
2016-05-20T03:00:24.394Z,1008.15
2016-05-20T03:01:24.366Z,1008.14
2016-05-20T03:02:24.353Z,1008.14
2016-05-20T03:03:24.323Z,1008.2
2016-05-20T03:04:24.296Z,1008.21
2016-05-20T03:05:24.267Z,1008.24
2016-05-20T03:06:24.254Z,1008.24
2016-05-20T03:07:24.241Z,1008.25
2016-05-20T03:08:24.196Z,1008.28
2016-05-20T03:09:24.184Z,1008.27
2016-05-20T03:10:24.156Z,1008.28
2016-05-20T03:11:24.126Z,1008.28
2016-05-20T03:12:24.098Z,1008.32
2016-05-20T03:13:24.084Z,1008.3
2016-05-20T03:14:24.056Z,1008.3
2016-05-20T03:15:24.029Z,1008.34
2016-05-20T03:16:24.000Z,1008.37
2016-05-20T03:17:23.986Z,1008.33
2016-05-20T03:18:23.959Z,1008.37
2016-05-20T03:19:23.930Z,1008.34
2016-05-20T03:20:23.916Z,1008.34
2016-05-20T03:21:23.888Z,1008.31
2016-05-20T03:22:23.859Z,1008.41
2016-05-20T03:23:23.830Z,1008.43
2016-05-20T03:24:23.818Z,1008.46
2016-05-20T03:25:23.790Z,1008.47
2016-05-20T03:26:23.760Z,1008.44
2016-05-20T03:27:23.732Z,1008.46
2016-05-20T03:28:23.719Z,1008.51
2016-05-20T03:29:23.691Z,1008.52
2016-05-20T03:30:23.663Z,1008.5
2016-05-20T03:31:23.649Z,1008.49
2016-05-20T03:32:23.605Z,1008.49
2016-05-20T03:33:23.592Z,1008.48
2016-05-20T03:34:23.579Z,1008.49
2016-05-20T03:35:23.535Z,1008.46
2016-05-20T03:36:23.521Z,1008.47
2016-05-20T03:37:23.493Z,1008.46
2016-05-20T03:38:23.465Z,1008.47
2016-05-20T03:39:23.437Z,1008.5
2016-05-20T03:40:23.423Z,1008.51
2016-05-20T03:41:23.395Z,1008.52
2016-05-20T03:42:23.367Z,1008.5
2016-05-20T03:43:23.354Z,1008.52
2016-05-20T03:44:23.325Z,1008.53
2016-05-20T03:45:23.296Z,1008.54
2016-05-20T03:46:23.267Z,1008.54
2016-05-20T03:47:23.255Z,1008.56
2016-05-20T03:48:23.225Z,1008.57
2016-05-20T03:49:23.197Z,1008.56
2016-05-20T03:50:23.169Z,1008.58
2016-05-20T03:51:23.141Z,1008.57
2016-05-20T03:52:23.128Z,1008.6
2016-05-20T03:53:23.100Z,1008.61
2016-05-20T03:54:23.070Z,1008.58
2016-05-20T03:55:23.058Z,1008.61
2016-05-20T03:56:23.030Z,1008.58
2016-05-20T03:57:23.000Z,1008.61
2016-05-20T03:58:22.972Z,1008.63
2016-05-20T03:59:22.958Z,1008.61
2016-05-20T04:00:22.930Z,1008.64
2016-05-20T04:01:22.902Z,1008.67
2016-05-20T04:02:22.874Z,1008.67
2016-05-20T04:03:22.860Z,1008.66
2016-05-20T04:04:22.832Z,1008.68
2016-05-20T04:05:22.804Z,1008.67
2016-05-20T04:06:22.791Z,1008.71
2016-05-20T04:07:22.762Z,1008.7
2016-05-20T04:08:22.732Z,1008.69
2016-05-20T04:09:22.705Z,1008.71
2016-05-20T04:10:22.692Z,1008.65
2016-05-20T04:11:22.663Z,1008.62
2016-05-20T04:12:22.634Z,1008.64
2016-05-20T04:13:22.621Z,1008.61
2016-05-20T04:14:22.593Z,1008.6
2016-05-20T04:15:22.565Z,1008.57
2016-05-20T04:16:22.552Z,1008.6
2016-05-20T04:17:22.523Z,1008.58
2016-05-20T04:18:22.495Z,1008.63
2016-05-20T04:19:22.482Z,1008.61
2016-05-20T04:20:22.453Z,1008.68
2016-05-20T04:21:22.425Z,1008.67
2016-05-20T04:22:22.411Z,1008.67
2016-05-20T04:23:22.383Z,1008.64
2016-05-20T04:24:22.355Z,1008.63
2016-05-20T04:25:22.325Z,1008.63
2016-05-20T04:26:22.313Z,1008.66
2016-05-20T04:27:22.283Z,1008.64
2016-05-20T04:28:22.255Z,1008.58
2016-05-20T04:29:22.259Z,1008.59
2016-05-20T04:30:22.214Z,1008.59
2016-05-20T04:31:22.186Z,1008.59
2016-05-20T04:32:22.172Z,1008.58
2016-05-20T04:33:22.144Z,1008.6
2016-05-20T04:34:22.132Z,1008.56
2016-05-20T04:35:22.102Z,1008.56
2016-05-20T04:36:22.074Z,1008.49
2016-05-20T04:37:22.045Z,1008.52
2016-05-20T04:38:22.033Z,1008.52
2016-05-20T04:39:22.005Z,1008.54
2016-05-20T04:40:21.991Z,1008.55
2016-05-20T04:41:21.963Z,1008.58
2016-05-20T04:42:21.934Z,1008.58
2016-05-20T04:43:21.921Z,1008.59
2016-05-20T04:44:21.893Z,1008.58
2016-05-20T04:45:21.864Z,1008.63
2016-05-20T04:46:21.851Z,1008.63
2016-05-20T04:47:21.822Z,1008.62
2016-05-20T04:48:21.794Z,1008.59
2016-05-20T04:49:21.781Z,1008.58
2016-05-20T04:50:21.752Z,1008.61
2016-05-20T04:51:21.724Z,1008.57
2016-05-20T04:52:21.711Z,1008.56
2016-05-20T04:53:21.683Z,1008.62
2016-05-20T04:54:21.654Z,1008.61
2016-05-20T04:55:21.641Z,1008.59
2016-05-20T04:56:21.609Z,1008.58
2016-05-20T04:57:21.596Z,1008.6
2016-05-20T04:58:21.568Z,1008.61
2016-05-20T04:59:21.539Z,1008.65
2016-05-20T05:00:21.527Z,1008.67
2016-05-20T05:01:21.497Z,1008.71
2016-05-20T05:02:21.470Z,1008.69
2016-05-20T05:03:21.456Z,1008.69
2016-05-20T05:04:21.427Z,1008.71
2016-05-20T05:05:21.416Z,1008.72
2016-05-20T05:06:21.386Z,1008.72
2016-05-20T05:07:21.358Z,1008.69
2016-05-20T05:08:21.345Z,1008.72
2016-05-20T05:09:21.332Z,1008.67
2016-05-20T05:10:21.304Z,1008.72
2016-05-20T05:11:21.274Z,1008.73
2016-05-20T05:12:21.246Z,1008.73
2016-05-20T05:13:21.233Z,1008.78
2016-05-20T05:14:21.204Z,1008.8
2016-05-20T05:15:21.192Z,1008.76
2016-05-20T05:16:21.163Z,1008.74
2016-05-20T05:17:21.151Z,1008.73
2016-05-20T05:18:21.122Z,1008.74
2016-05-20T05:19:21.093Z,1008.74
2016-05-20T05:20:21.081Z,1008.73
2016-05-20T05:21:21.052Z,1008.75
2016-05-20T05:22:21.039Z,1008.72
2016-05-20T05:23:21.010Z,1008.71
2016-05-20T05:24:20.982Z,1008.71
2016-05-20T05:25:20.969Z,1008.68
2016-05-20T05:26:20.939Z,1008.72
2016-05-20T05:27:20.927Z,1008.73
2016-05-20T05:28:20.899Z,1008.7
2016-05-20T05:29:20.886Z,1008.68
2016-05-20T05:30:20.858Z,1008.71
2016-05-20T05:31:20.844Z,1008.68
2016-05-20T05:32:20.816Z,1008.62
2016-05-20T05:33:20.788Z,1008.58
2016-05-20T05:34:20.775Z,1008.62
2016-05-20T05:35:20.746Z,1008.61
2016-05-20T05:36:20.733Z,1008.58
2016-05-20T05:37:20.704Z,1008.58
2016-05-20T05:38:20.691Z,1008.58
2016-05-20T05:39:20.694Z,1008.6
2016-05-20T05:40:20.649Z,1008.63
2016-05-20T05:41:20.622Z,1008.64
2016-05-20T05:42:20.608Z,1008.64
2016-05-20T05:43:20.579Z,1008.68
2016-05-20T05:44:20.568Z,1008.68
2016-05-20T05:45:20.537Z,1008.65
2016-05-20T05:46:20.526Z,1008.62
2016-05-20T05:47:20.496Z,1008.65
2016-05-20T05:48:20.484Z,1008.63
2016-05-20T05:49:20.455Z,1008.66
2016-05-20T05:50:20.443Z,1008.69
2016-05-20T05:51:20.414Z,1008.72
2016-05-20T05:52:20.401Z,1008.73
2016-05-20T05:53:20.387Z,1008.72
2016-05-20T05:54:20.359Z,1008.71
2016-05-20T05:55:20.331Z,1008.71
2016-05-20T05:56:20.317Z,1008.72
2016-05-20T05:57:20.306Z,1008.78
2016-05-20T05:58:20.276Z,1008.81
2016-05-20T05:59:20.277Z,1008.79
2016-05-20T06:00:20.293Z,1008.77
2016-05-20T06:01:20.324Z,1008.76
2016-05-20T06:02:20.341Z,1008.79
2016-05-20T06:03:20.372Z,1008.79
2016-05-20T06:04:20.379Z,1008.75
2016-05-20T06:05:20.382Z,1008.8
2016-05-20T06:06:20.370Z,1008.84
2016-05-20T06:07:20.373Z,1008.9
2016-05-20T06:08:20.361Z,1008.85
2016-05-20T06:09:20.361Z,1008.84
2016-05-20T06:10:20.338Z,1008.83
2016-05-20T06:11:20.331Z,1008.86
2016-05-20T06:12:20.308Z,1008.84
2016-05-20T06:13:20.301Z,1008.86
2016-05-20T06:14:20.276Z,1008.86
2016-05-20T06:15:20.266Z,1008.83
2016-05-20T06:16:20.239Z,1008.83
2016-05-20T06:17:20.228Z,1008.83
2016-05-20T06:18:20.202Z,1008.83
2016-05-20T06:19:20.191Z,1008.89
2016-05-20T06:20:20.162Z,1008.82
2016-05-20T06:21:20.167Z,1008.9
2016-05-20T06:22:21.497Z,1008.92
2016-05-20T06:23:21.502Z,1008.91
2016-05-20T06:24:21.677Z,1008.93
2016-05-20T06:25:21.710Z,1008.87
2016-05-20T06:26:21.667Z,1008.91
2016-05-20T06:27:21.545Z,1008.9
2016-05-20T06:28:21.486Z,1008.88
2016-05-20T06:29:19.989Z,1008.94
2016-05-20T06:30:19.959Z,1008.97
2016-05-20T06:31:19.947Z,1008.89
2016-05-20T06:32:19.919Z,1008.9
2016-05-20T06:33:19.906Z,1008.91
2016-05-20T06:34:19.877Z,1008.96
2016-05-20T06:35:19.880Z,1008.92
2016-05-20T06:36:19.836Z,1008.93
2016-05-20T06:37:19.823Z,1008.96
2016-05-20T06:38:19.794Z,1008.9
2016-05-20T06:39:19.781Z,1008.95
2016-05-20T06:40:19.753Z,1008.91
2016-05-20T06:41:19.739Z,1008.92
2016-05-20T06:42:19.710Z,1008.86
2016-05-20T06:43:19.699Z,1008.88
2016-05-20T06:44:19.669Z,1008.92
2016-05-20T06:45:19.641Z,1008.95
2016-05-20T06:46:19.643Z,1008.85
2016-05-20T06:47:19.599Z,1008.88
2016-05-20T06:48:19.587Z,1008.9
2016-05-20T06:49:19.557Z,1008.89
2016-05-20T06:50:19.545Z,1008.89
2016-05-20T06:51:19.516Z,1008.87
2016-05-20T06:52:19.504Z,1008.91
2016-05-20T06:53:19.475Z,1008.88
2016-05-20T06:54:19.462Z,1008.9
2016-05-20T06:55:19.715Z,1008.88
2016-05-20T06:56:19.421Z,1008.9
2016-05-20T06:57:19.392Z,1008.85
2016-05-20T06:58:20.598Z,1008.85
2016-05-20T06:59:20.617Z,1008.85
2016-05-20T07:00:19.900Z,1008.93
2016-05-20T07:01:19.309Z,1008.87
2016-05-20T07:02:19.296Z,1008.9
2016-05-20T07:03:19.267Z,1008.83
2016-05-20T07:04:19.239Z,1008.88
2016-05-20T07:05:19.225Z,1008.87
2016-05-20T07:06:19.197Z,1008.89
2016-05-20T07:07:19.184Z,1008.83
2016-05-20T07:08:19.156Z,1008.9
2016-05-20T07:09:19.143Z,1008.91
2016-05-20T07:10:19.255Z,1008.91
2016-05-20T07:11:19.102Z,1008.91
2016-05-20T07:12:19.073Z,1008.9
2016-05-20T07:13:19.060Z,1008.88
2016-05-20T07:14:19.032Z,1008.96
2016-05-20T07:15:19.019Z,1008.96
2016-05-20T07:16:18.991Z,1009
2016-05-20T07:17:18.977Z,1008.98
2016-05-20T07:18:18.964Z,1008.95
2016-05-20T07:19:18.936Z,1008.96
2016-05-20T07:20:18.923Z,1008.95
2016-05-20T07:21:18.893Z,1008.95
2016-05-20T07:22:18.881Z,1008.99
2016-05-20T07:23:18.852Z,1008.97
2016-05-20T07:24:18.840Z,1008.95
2016-05-20T07:25:18.811Z,1008.97
2016-05-20T07:26:18.798Z,1008.95
2016-05-20T07:27:18.770Z,1008.93
2016-05-20T07:28:18.757Z,1008.97
2016-05-20T07:29:18.728Z,1008.92
2016-05-20T07:30:18.715Z,1008.93
2016-05-20T07:31:18.687Z,1008.92
2016-05-20T07:32:18.674Z,1008.97
2016-05-20T07:33:18.645Z,1008.97
2016-05-20T07:34:18.632Z,1008.92
2016-05-20T07:35:18.604Z,1008.96
2016-05-20T07:36:18.591Z,1008.93
2016-05-20T07:37:18.561Z,1008.97
2016-05-20T07:38:18.549Z,1008.99
2016-05-20T07:39:18.520Z,1008.99
2016-05-20T07:40:18.508Z,1009
2016-05-20T07:41:18.479Z,1009.04
2016-05-20T07:42:18.466Z,1009.05
2016-05-20T07:43:18.438Z,1009.04
2016-05-20T07:44:18.425Z,1009.02
2016-05-20T07:45:18.411Z,1009.01
2016-05-20T07:46:18.383Z,1009.03
2016-05-20T07:47:18.371Z,1009.02
2016-05-20T07:48:18.341Z,1009.05
2016-05-20T07:49:18.329Z,1009.02
2016-05-20T07:50:18.300Z,1009.05
2016-05-20T07:51:18.288Z,1009.03
2016-05-20T07:52:18.931Z,1008.98
2016-05-20T07:53:18.229Z,1008.93
2016-05-20T07:54:18.217Z,1008.92
2016-05-20T07:55:18.204Z,1008.96
2016-05-20T07:56:18.176Z,1008.97
2016-05-20T07:57:18.162Z,1009.02
2016-05-20T07:58:18.134Z,1009.01
2016-05-20T07:59:18.121Z,1009.04
2016-05-20T08:00:18.093Z,1008.95
2016-05-20T08:01:18.298Z,1008.89
2016-05-20T08:02:18.051Z,1008.88
2016-05-20T08:03:18.039Z,1008.94
2016-05-20T08:04:18.009Z,1008.92
2016-05-20T08:05:17.997Z,1008.91
2016-05-20T08:06:17.968Z,1008.97
2016-05-20T08:07:17.955Z,1008.99
2016-05-20T08:08:17.927Z,1008.96
2016-05-20T08:09:17.914Z,1008.97
2016-05-20T08:10:17.901Z,1008.92
2016-05-20T08:11:17.872Z,1008.91
2016-05-20T08:12:17.859Z,1008.91
2016-05-20T08:13:17.831Z,1008.9
2016-05-20T08:14:17.802Z,1008.9
2016-05-20T08:15:17.789Z,1008.9
2016-05-20T08:16:17.777Z,1008.91
2016-05-20T08:17:26.592Z,1008.91
2016-05-20T08:18:17.735Z,1008.91
2016-05-20T08:19:17.707Z,1008.92
2016-05-20T08:20:21.349Z,1008.91
2016-05-20T08:21:17.665Z,1008.94
2016-05-20T08:22:17.652Z,1008.98
2016-05-20T08:23:17.638Z,1008.92
2016-05-20T08:24:17.626Z,1008.96
2016-05-20T08:25:24.223Z,1008.99
2016-05-20T08:26:17.632Z,1009
2016-05-20T08:27:17.556Z,1008.97
2016-05-20T08:28:17.543Z,1009.01
2016-05-20T08:29:17.514Z,1008.94
2016-05-20T08:30:20.017Z,1008.96
2016-05-20T08:31:17.489Z,1008.98
2016-05-20T08:32:17.475Z,1008.94
2016-05-20T08:33:17.448Z,1008.95
2016-05-20T08:34:17.450Z,1008.9
2016-05-20T08:35:27.500Z,1008.94
2016-05-20T08:36:17.392Z,1008.95
2016-05-20T08:37:17.520Z,1009.02
2016-05-20T08:38:17.351Z,1009
2016-05-20T08:39:17.338Z,1009.04
2016-05-20T08:40:17.325Z,1009.04
2016-05-20T08:41:17.297Z,1009.08
2016-05-20T08:42:17.284Z,1009.09
2016-05-20T08:43:17.256Z,1009.1
2016-05-20T08:44:17.242Z,1009.04
2016-05-20T08:45:17.229Z,1009.06
2016-05-20T08:46:17.200Z,1009.04
2016-05-20T08:47:17.188Z,1009.06
2016-05-20T08:48:17.175Z,1009.05
2016-05-20T08:49:17.163Z,1009.05
2016-05-20T08:50:17.133Z,1009.05
2016-05-20T08:51:17.121Z,1009.02
2016-05-20T08:52:17.124Z,1009.05
2016-05-20T08:53:17.079Z,1009.08
2016-05-20T08:54:17.066Z,1009.02
2016-05-20T08:55:17.521Z,1009.03
2016-05-20T08:56:17.025Z,1009.07
2016-05-20T08:57:17.027Z,1009.09
2016-05-20T08:58:16.998Z,1009.03
2016-05-20T08:59:16.986Z,1009.03
2016-05-20T09:00:16.973Z,1009.02
2016-05-20T09:01:16.945Z,1009.05
2016-05-20T09:02:16.931Z,1009.02
2016-05-20T09:03:16.918Z,1008.96
2016-05-20T09:04:16.890Z,1009.01
2016-05-20T09:05:16.877Z,1009.03
2016-05-20T09:06:16.864Z,1009.06
2016-05-20T09:07:16.850Z,1009.06
2016-05-20T09:08:16.823Z,1009.05
2016-05-20T09:09:16.809Z,1009.08
2016-05-20T09:10:16.922Z,1009.08
2016-05-20T09:11:16.784Z,1009.1
2016-05-20T09:12:16.755Z,1009.12
2016-05-20T09:13:16.742Z,1009.13
2016-05-20T09:14:16.714Z,1009.12
2016-05-20T09:15:16.700Z,1009.11
2016-05-20T09:16:16.688Z,1009.08
2016-05-20T09:17:16.659Z,1009.09
2016-05-20T09:18:18.053Z,1009.07
2016-05-20T09:19:16.634Z,1009.05
2016-05-20T09:20:16.621Z,1009.08
2016-05-20T09:21:16.592Z,1009.09
2016-05-20T09:22:16.579Z,1009.07
2016-05-20T09:23:16.566Z,1009.09
2016-05-20T09:24:16.538Z,1009.1
2016-05-20T09:25:16.524Z,1009.11
2016-05-20T09:26:16.527Z,1009.12
2016-05-20T09:27:16.482Z,1009.13
2016-05-20T09:28:16.471Z,1009.13
2016-05-20T09:29:16.441Z,1009.07
2016-05-20T09:30:16.444Z,1009.13
2016-05-20T09:31:16.416Z,1009.06
2016-05-20T09:32:16.387Z,1009.07
2016-05-20T09:33:16.374Z,1009.07
2016-05-20T09:34:16.362Z,1009.08
2016-05-20T09:35:16.332Z,1009.05
2016-05-20T09:36:16.320Z,1009.07
2016-05-20T09:37:16.291Z,1009.07
2016-05-20T09:38:16.278Z,1009.08
2016-05-20T09:39:16.312Z,1009.08
2016-05-20T09:40:16.252Z,1009.1
2016-05-20T09:41:16.223Z,1009.12
2016-05-20T09:42:16.195Z,1009.12
2016-05-20T09:43:16.183Z,1009.1
2016-05-20T09:44:17.670Z,1009.1
2016-05-20T09:45:16.141Z,1009.1
2016-05-20T09:46:16.128Z,1009.11
2016-05-20T09:47:16.114Z,1009.13
2016-05-20T09:48:16.086Z,1009.11
2016-05-20T09:49:16.933Z,1009.1
2016-05-20T09:50:16.045Z,1009.08
2016-05-20T09:51:16.985Z,1009.07
2016-05-20T09:52:16.019Z,1009.09
2016-05-20T09:53:15.991Z,1009.14
2016-05-20T09:54:16.790Z,1009.15
2016-05-20T09:55:16.011Z,1009.16
2016-05-20T09:56:15.935Z,1009.15
2016-05-20T09:57:15.924Z,1009.17
2016-05-20T09:58:15.910Z,1009.11
2016-05-20T09:59:15.896Z,1009.11
2016-05-20T10:00:15.868Z,1009.15
2016-05-20T10:01:15.840Z,1009.14
2016-05-20T10:02:15.827Z,1009.19
2016-05-20T10:03:15.815Z,1009.18
2016-05-20T10:04:16.614Z,1009.2
2016-05-20T10:05:15.773Z,1009.21
2016-05-20T10:06:15.745Z,1009.27
2016-05-20T10:07:15.732Z,1009.27
2016-05-20T10:08:15.718Z,1009.31
2016-05-20T10:09:16.471Z,1009.31
2016-05-20T10:10:15.692Z,1009.26
2016-05-20T10:11:15.664Z,1009.26
2016-05-20T10:12:15.636Z,1009.29
2016-05-20T10:13:15.622Z,1009.3
2016-05-20T10:14:15.609Z,1009.28
2016-05-20T10:15:15.581Z,1009.29
2016-05-20T10:16:15.552Z,1009.3
2016-05-20T10:17:15.539Z,1009.29
2016-05-20T10:18:15.527Z,1009.29
2016-05-20T10:19:15.513Z,1009.27
2016-05-20T10:20:15.485Z,1009.3
2016-05-20T10:21:15.472Z,1009.28
2016-05-20T10:22:15.458Z,1009.31
2016-05-20T10:23:15.430Z,1009.31
2016-05-20T10:24:15.418Z,1009.33
2016-05-20T10:25:15.436Z,1009.35
2016-05-20T10:26:15.376Z,1009.39
2016-05-20T10:27:15.363Z,1009.42
2016-05-20T10:28:15.334Z,1009.39
2016-05-20T10:29:15.321Z,1009.33
2016-05-20T10:30:15.309Z,1009.35
2016-05-20T10:31:15.280Z,1009.42
2016-05-20T10:32:15.267Z,1009.39
2016-05-20T10:33:15.238Z,1009.39
2016-05-20T10:34:15.226Z,1009.41
2016-05-20T10:35:15.213Z,1009.42
2016-05-20T10:36:15.184Z,1009.35
2016-05-20T10:37:15.171Z,1009.43
2016-05-20T10:38:15.159Z,1009.46
2016-05-20T10:39:15.208Z,1009.48
2016-05-20T10:40:15.429Z,1009.46
2016-05-20T10:41:15.104Z,1009.43
2016-05-20T10:42:15.075Z,1009.42
2016-05-20T10:43:15.063Z,1009.41
2016-05-20T10:44:15.049Z,1009.41
2016-05-20T10:45:15.037Z,1009.47
2016-05-20T10:46:15.009Z,1009.43
2016-05-20T10:47:14.995Z,1009.45
2016-05-20T10:48:14.967Z,1009.46
2016-05-20T10:49:14.954Z,1009.37
2016-05-20T10:50:14.925Z,1009.43
2016-05-20T10:51:14.911Z,1009.46
2016-05-20T10:52:14.900Z,1009.44
2016-05-20T10:53:14.886Z,1009.41
2016-05-20T10:54:14.858Z,1009.4
2016-05-20T10:55:14.844Z,1009.43
2016-05-20T10:56:14.832Z,1009.47
2016-05-20T10:57:14.803Z,1009.4
2016-05-20T10:58:14.791Z,1009.43
2016-05-20T10:59:14.778Z,1009.44
2016-05-20T11:00:14.748Z,1009.46
2016-05-20T11:01:14.735Z,1009.46
2016-05-20T11:02:14.723Z,1009.44
2016-05-20T11:03:14.694Z,1009.42
2016-05-20T11:04:14.682Z,1009.44
2016-05-20T11:05:14.668Z,1009.45
2016-05-20T11:06:14.656Z,1009.48
2016-05-20T11:07:14.627Z,1009.49
2016-05-20T11:08:14.614Z,1009.49
2016-05-20T11:09:14.601Z,1009.47
2016-05-20T11:10:14.588Z,1009.44
2016-05-20T11:11:14.607Z,1009.46
2016-05-20T11:12:14.548Z,1009.46
2016-05-20T11:13:14.518Z,1009.41
2016-05-20T11:14:14.505Z,1009.4
2016-05-20T11:15:14.492Z,1009.44
2016-05-20T11:16:14.464Z,1009.46
2016-05-20T11:17:14.857Z,1009.46
2016-05-20T11:18:14.438Z,1009.49
2016-05-20T11:19:14.425Z,1009.44
2016-05-20T11:20:14.397Z,1009.48
2016-05-20T11:21:14.399Z,1009.5
2016-05-20T11:22:14.355Z,1009.43
2016-05-20T11:23:14.341Z,1009.49
2016-05-20T11:24:14.329Z,1009.5
2016-05-20T11:25:14.316Z,1009.48
2016-05-20T11:26:14.288Z,1009.52
2016-05-20T11:27:14.274Z,1009.48
2016-05-20T11:28:14.340Z,1009.45
2016-05-20T11:29:14.233Z,1009.42
2016-05-20T11:30:14.221Z,1009.45
2016-05-20T11:31:14.208Z,1009.41
2016-05-20T11:32:14.194Z,1009.45
2016-05-20T11:33:14.166Z,1009.42
2016-05-20T11:34:14.152Z,1009.41
2016-05-20T11:35:14.124Z,1009.43
2016-05-20T11:36:14.112Z,1009.48
2016-05-20T11:37:14.098Z,1009.42
2016-05-20T11:38:14.085Z,1009.44
2016-05-20T11:39:14.056Z,1009.46
2016-05-20T11:40:14.043Z,1009.48
2016-05-20T11:41:14.031Z,1009.51
2016-05-20T11:42:14.003Z,1009.54
2016-05-20T11:43:13.989Z,1009.54
2016-05-20T11:44:13.977Z,1009.53
2016-05-20T11:45:13.948Z,1009.52
2016-05-20T11:46:13.934Z,1009.57
2016-05-20T11:47:13.922Z,1009.57
2016-05-20T11:48:13.909Z,1009.6
2016-05-20T11:49:13.881Z,1009.61
2016-05-20T11:50:13.867Z,1009.58
2016-05-20T11:51:13.840Z,1009.61
2016-05-20T11:52:13.825Z,1009.53
2016-05-20T11:53:13.813Z,1009.59
2016-05-20T11:54:13.785Z,1009.56
2016-05-20T11:55:14.194Z,1009.55
2016-05-20T11:56:13.759Z,1009.57
2016-05-20T11:57:13.730Z,1009.53
2016-05-20T11:58:13.733Z,1009.55
2016-05-20T11:59:13.705Z,1009.57
2016-05-20T12:00:13.676Z,1009.56
2016-05-20T12:01:13.679Z,1009.58
2016-05-20T12:02:13.650Z,1009.53
2016-05-20T12:03:13.621Z,1009.56
2016-05-20T12:04:13.624Z,1009.54
2016-05-20T12:05:13.596Z,1009.55
2016-05-20T12:06:13.582Z,1009.59
2016-05-20T12:07:13.554Z,1009.63
2016-05-20T12:08:13.540Z,1009.56